Big Trout Lake, Canada
Current Conditions -  °F | °C
As of 6:00 PM on Tuesday 25 Nov 2014 (Local Time) from CYTL Reporting Station
Clear Clear  
Wind Chill: -29°   Ceiling: Unl
Heat Index: -15°   Visibility: 9mi
Dew Point: -22°   Wind: 6mph
Humidity: 70%   Direction: 300°WNW
Pressure: 30.01"   Gusts: NA
Location:  53.77°N, 90.02°W
Report Text: CYTL 252300Z AUTO 30005KT 9SM CLR M26/M30 A3001 RMK SLP192
Loading
Personal Weather Stations






























Interactive Weather Map New forecast layout! Learn more

10-Day Weather Forecast

Advertisements
Track Severe Weather on mobile